sensor_id;sensor_type;location;lat;lon;timestamp;temperature;humidity
81935;DHT22;71405;47.674;-2.050;2024-01-16T00:01:10;19.50;43.80
81935;DHT22;71405;47.674;-2.050;2024-01-16T00:03:38;19.50;44.70
81935;DHT22;71405;47.674;-2.050;2024-01-16T00:06:03;19.50;44.00
81935;DHT22;71405;47.674;-2.050;2024-01-16T00:08:29;19.50;43.60
81935;DHT22;71405;47.674;-2.050;2024-01-16T00:10:55;19.50;44.50
81935;DHT22;71405;47.674;-2.050;2024-01-16T00:13:21;19.50;43.70
81935;DHT22;71405;47.674;-2.050;2024-01-16T00:15:46;19.50;43.70
81935;DHT22;71405;47.674;-2.050;2024-01-16T00:18:12;19.50;44.00
81935;DHT22;71405;47.674;-2.050;2024-01-16T00:20:38;19.50;43.80
81935;DHT22;71405;47.674;-2.050;2024-01-16T00:23:03;19.50;43.40
81935;DHT22;71405;47.674;-2.050;2024-01-16T00:25:29;19.50;43.90
81935;DHT22;71405;47.674;-2.050;2024-01-16T00:27:55;19.50;43.40
81935;DHT22;71405;47.674;-2.050;2024-01-16T00:30:21;19.50;43.30
81935;DHT22;71405;47.674;-2.050;2024-01-16T00:32:46;19.40;44.30
81935;DHT22;71405;47.674;-2.050;2024-01-16T00:35:12;19.50;44.30
81935;DHT22;71405;47.674;-2.050;2024-01-16T00:37:38;19.40;43.30
81935;DHT22;71405;47.674;-2.050;2024-01-16T00:40:04;19.40;43.30
81935;DHT22;71405;47.674;-2.050;2024-01-16T00:42:30;19.40;43.50
81935;DHT22;71405;47.674;-2.050;2024-01-16T00:44:57;19.40;43.60
81935;DHT22;71405;47.674;-2.050;2024-01-16T00:47:23;19.40;43.60
81935;DHT22;71405;47.674;-2.050;2024-01-16T00:49:50;19.40;43.30
81935;DHT22;71405;47.674;-2.050;2024-01-16T00:52:16;19.40;43.10
81935;DHT22;71405;47.674;-2.050;2024-01-16T00:54:43;19.40;43.50
81935;DHT22;71405;47.674;-2.050;2024-01-16T00:57:08;19.40;43.10
81935;DHT22;71405;47.674;-2.050;2024-01-16T00:59:34;19.40;43.00
81935;DHT22;71405;47.674;-2.050;2024-01-16T01:02:00;19.40;43.20
81935;DHT22;71405;47.674;-2.050;2024-01-16T01:04:26;19.40;43.10
81935;DHT22;71405;47.674;-2.050;2024-01-16T01:06:51;19.40;43.20
81935;DHT22;71405;47.674;-2.050;2024-01-16T01:09:17;19.40;43.20
81935;DHT22;71405;47.674;-2.050;2024-01-16T01:11:43;19.40;43.00
81935;DHT22;71405;47.674;-2.050;2024-01-16T01:14:09;19.40;42.90
81935;DHT22;71405;47.674;-2.050;2024-01-16T01:16:34;19.40;43.00
81935;DHT22;71405;47.674;-2.050;2024-01-16T01:19:00;19.40;43.00
81935;DHT22;71405;47.674;-2.050;2024-01-16T01:21:26;19.40;42.90
81935;DHT22;71405;47.674;-2.050;2024-01-16T01:23:52;19.40;43.10
81935;DHT22;71405;47.674;-2.050;2024-01-16T01:26:18;19.40;43.00
81935;DHT22;71405;47.674;-2.050;2024-01-16T01:28:44;19.40;43.00
81935;DHT22;71405;47.674;-2.050;2024-01-16T01:31:13;19.40;43.00
81935;DHT22;71405;47.674;-2.050;2024-01-16T01:33:39;19.40;42.80
81935;DHT22;71405;47.674;-2.050;2024-01-16T01:36:05;19.40;43.40
81935;DHT22;71405;47.674;-2.050;2024-01-16T01:38:31;19.40;42.90
81935;DHT22;71405;47.674;-2.050;2024-01-16T01:40:57;19.40;42.80
81935;DHT22;71405;47.674;-2.050;2024-01-16T01:43:24;19.40;42.90
81935;DHT22;71405;47.674;-2.050;2024-01-16T01:46:16;19.40;43.70
81935;DHT22;71405;47.674;-2.050;2024-01-16T01:48:43;19.40;42.70
81935;DHT22;71405;47.674;-2.050;2024-01-16T01:51:13;19.40;42.80
81935;DHT22;71405;47.674;-2.050;2024-01-16T01:53:42;19.30;42.90
81935;DHT22;71405;47.674;-2.050;2024-01-16T01:56:10;19.30;42.70
81935;DHT22;71405;47.674;-2.050;2024-01-16T01:58:37;19.40;43.00
81935;DHT22;71405;47.674;-2.050;2024-01-16T02:01:04;19.30;42.60
81935;DHT22;71405;47.674;-2.050;2024-01-16T02:03:43;19.30;42.70
81935;DHT22;71405;47.674;-2.050;2024-01-16T02:06:10;19.30;42.60
81935;DHT22;71405;47.674;-2.050;2024-01-16T02:08:36;19.30;42.60
81935;DHT22;71405;47.674;-2.050;2024-01-16T02:11:02;19.30;42.60
81935;DHT22;71405;47.674;-2.050;2024-01-16T02:13:28;19.30;42.50
81935;DHT22;71405;47.674;-2.050;2024-01-16T02:15:53;19.30;42.60
81935;DHT22;71405;47.674;-2.050;2024-01-16T02:18:19;19.30;42.50
81935;DHT22;71405;47.674;-2.050;2024-01-16T02:20:46;19.30;42.50
81935;DHT22;71405;47.674;-2.050;2024-01-16T02:23:14;19.30;42.40
81935;DHT22;71405;47.674;-2.050;2024-01-16T02:25:43;19.30;42.40
81935;DHT22;71405;47.674;-2.050;2024-01-16T02:28:09;19.30;42.50
81935;DHT22;71405;47.674;-2.050;2024-01-16T02:30:34;19.30;42.50
81935;DHT22;71405;47.674;-2.050;2024-01-16T02:33:00;19.30;42.40
81935;DHT22;71405;47.674;-2.050;2024-01-16T02:35:26;19.30;42.40
81935;DHT22;71405;47.674;-2.050;2024-01-16T02:37:51;19.30;42.40
81935;DHT22;71405;47.674;-2.050;2024-01-16T02:40:17;19.30;42.30
81935;DHT22;71405;47.674;-2.050;2024-01-16T02:42:43;19.30;42.40
81935;DHT22;71405;47.674;-2.050;2024-01-16T02:45:09;19.30;42.40
81935;DHT22;71405;47.674;-2.050;2024-01-16T02:47:34;19.30;42.30
81935;DHT22;71405;47.674;-2.050;2024-01-16T02:50:01;19.30;42.40
81935;DHT22;71405;47.674;-2.050;2024-01-16T02:52:26;19.30;42.50
81935;DHT22;71405;47.674;-2.050;2024-01-16T02:54:52;19.30;42.30
81935;DHT22;71405;47.674;-2.050;2024-01-16T02:57:18;19.30;42.50
81935;DHT22;71405;47.674;-2.050;2024-01-16T02:59:44;19.30;42.40
81935;DHT22;71405;47.674;-2.050;2024-01-16T03:02:10;19.30;42.40
81935;DHT22;71405;47.674;-2.050;2024-01-16T03:04:37;19.30;42.50
81935;DHT22;71405;47.674;-2.050;2024-01-16T03:07:02;19.30;42.30
81935;DHT22;71405;47.674;-2.050;2024-01-16T03:09:28;19.30;42.20
81935;DHT22;71405;47.674;-2.050;2024-01-16T03:11:54;19.20;42.70
81935;DHT22;71405;47.674;-2.050;2024-01-16T03:14:20;19.20;42.30
81935;DHT22;71405;47.674;-2.050;2024-01-16T03:16:46;19.20;42.30
81935;DHT22;71405;47.674;-2.050;2024-01-16T03:19:12;19.20;42.20
81935;DHT22;71405;47.674;-2.050;2024-01-16T03:21:38;19.20;42.30
81935;DHT22;71405;47.674;-2.050;2024-01-16T03:24:05;19.20;42.10
81935;DHT22;71405;47.674;-2.050;2024-01-16T03:26:31;19.20;42.20
81935;DHT22;71405;47.674;-2.050;2024-01-16T03:28:58;19.20;42.10
81935;DHT22;71405;47.674;-2.050;2024-01-16T03:31:23;19.20;42.20
81935;DHT22;71405;47.674;-2.050;2024-01-16T03:33:49;19.20;42.10
81935;DHT22;71405;47.674;-2.050;2024-01-16T03:36:15;19.20;42.00
81935;DHT22;71405;47.674;-2.050;2024-01-16T03:38:44;19.20;42.00
81935;DHT22;71405;47.674;-2.050;2024-01-16T03:41:13;19.20;42.00
81935;DHT22;71405;47.674;-2.050;2024-01-16T03:43:40;19.20;42.00
81935;DHT22;71405;47.674;-2.050;2024-01-16T03:46:06;19.20;42.00
81935;DHT22;71405;47.674;-2.050;2024-01-16T03:48:32;19.20;42.00
81935;DHT22;71405;47.674;-2.050;2024-01-16T03:50:57;19.20;42.00
81935;DHT22;71405;47.674;-2.050;2024-01-16T03:53:23;19.20;42.00
81935;DHT22;71405;47.674;-2.050;2024-01-16T03:55:49;19.20;42.10
81935;DHT22;71405;47.674;-2.050;2024-01-16T03:58:15;19.20;41.90
81935;DHT22;71405;47.674;-2.050;2024-01-16T04:00:41;19.20;41.90
81935;DHT22;71405;47.674;-2.050;2024-01-16T04:03:07;19.20;42.30
81935;DHT22;71405;47.674;-2.050;2024-01-16T04:05:33;19.20;41.90
81935;DHT22;71405;47.674;-2.050;2024-01-16T04:07:59;19.20;41.90
81935;DHT22;71405;47.674;-2.050;2024-01-16T04:10:25;19.20;42.00
81935;DHT22;71405;47.674;-2.050;2024-01-16T04:12:50;19.20;42.10
81935;DHT22;71405;47.674;-2.050;2024-01-16T04:15:16;19.20;41.90
81935;DHT22;71405;47.674;-2.050;2024-01-16T04:17:42;19.20;41.90
81935;DHT22;71405;47.674;-2.050;2024-01-16T04:20:08;19.20;42.00
81935;DHT22;71405;47.674;-2.050;2024-01-16T04:22:35;19.10;41.90
81935;DHT22;71405;47.674;-2.050;2024-01-16T04:25:01;19.20;42.00
81935;DHT22;71405;47.674;-2.050;2024-01-16T04:27:27;19.20;41.90
81935;DHT22;71405;47.674;-2.050;2024-01-16T04:29:52;19.20;41.90
81935;DHT22;71405;47.674;-2.050;2024-01-16T04:32:18;19.10;41.90
81935;DHT22;71405;47.674;-2.050;2024-01-16T04:34:44;19.10;41.90
81935;DHT22;71405;47.674;-2.050;2024-01-16T04:37:10;19.10;42.10
81935;DHT22;71405;47.674;-2.050;2024-01-16T04:39:36;19.10;41.90
81935;DHT22;71405;47.674;-2.050;2024-01-16T04:42:01;19.10;41.90
81935;DHT22;71405;47.674;-2.050;2024-01-16T04:44:27;19.10;41.90
81935;DHT22;71405;47.674;-2.050;2024-01-16T04:46:52;19.10;41.80
81935;DHT22;71405;47.674;-2.050;2024-01-16T04:49:18;19.10;41.90
81935;DHT22;71405;47.674;-2.050;2024-01-16T04:51:44;19.10;41.80
81935;DHT22;71405;47.674;-2.050;2024-01-16T04:54:11;19.10;41.80
81935;DHT22;71405;47.674;-2.050;2024-01-16T04:56:37;19.10;41.80
81935;DHT22;71405;47.674;-2.050;2024-01-16T04:59:03;19.10;41.80
81935;DHT22;71405;47.674;-2.050;2024-01-16T05:01:29;19.10;41.80
81935;DHT22;71405;47.674;-2.050;2024-01-16T05:03:54;19.10;41.70
81935;DHT22;71405;47.674;-2.050;2024-01-16T05:06:20;19.10;41.80
81935;DHT22;71405;47.674;-2.050;2024-01-16T05:08:46;19.10;41.60
81935;DHT22;71405;47.674;-2.050;2024-01-16T05:11:12;19.10;41.60
81935;DHT22;71405;47.674;-2.050;2024-01-16T05:13:38;19.20;41.50
81935;DHT22;71405;47.674;-2.050;2024-01-16T05:16:04;19.20;41.60
81935;DHT22;71405;47.674;-2.050;2024-01-16T05:18:29;19.20;41.60
81935;DHT22;71405;47.674;-2.050;2024-01-16T05:20:55;19.20;41.40
81935;DHT22;71405;47.674;-2.050;2024-01-16T05:23:24;19.20;41.60
81935;DHT22;71405;47.674;-2.050;2024-01-16T05:25:49;19.20;41.30
81935;DHT22;71405;47.674;-2.050;2024-01-16T05:28:15;19.20;41.60
81935;DHT22;71405;47.674;-2.050;2024-01-16T05:30:41;19.20;41.60
81935;DHT22;71405;47.674;-2.050;2024-01-16T05:33:07;19.20;41.40
81935;DHT22;71405;47.674;-2.050;2024-01-16T05:35:33;19.20;41.40
81935;DHT22;71405;47.674;-2.050;2024-01-16T05:37:59;19.20;41.90
81935;DHT22;71405;47.674;-2.050;2024-01-16T05:40:25;19.20;41.50
81935;DHT22;71405;47.674;-2.050;2024-01-16T05:42:52;19.20;41.30
81935;DHT22;71405;47.674;-2.050;2024-01-16T05:45:17;19.20;41.40
81935;DHT22;71405;47.674;-2.050;2024-01-16T05:47:43;19.20;41.20
81935;DHT22;71405;47.674;-2.050;2024-01-16T05:50:10;19.20;41.40
81935;DHT22;71405;47.674;-2.050;2024-01-16T05:52:36;19.20;41.80
81935;DHT22;71405;47.674;-2.050;2024-01-16T05:55:03;19.20;41.20
81935;DHT22;71405;47.674;-2.050;2024-01-16T05:57:29;19.20;41.60
81935;DHT22;71405;47.674;-2.050;2024-01-16T05:59:59;19.20;41.30
81935;DHT22;71405;47.674;-2.050;2024-01-16T06:02:25;19.20;41.30
81935;DHT22;71405;47.674;-2.050;2024-01-16T06:04:51;19.20;41.40
81935;DHT22;71405;47.674;-2.050;2024-01-16T06:07:16;19.20;41.50
81935;DHT22;71405;47.674;-2.050;2024-01-16T06:09:42;19.20;41.40
81935;DHT22;71405;47.674;-2.050;2024-01-16T06:12:08;19.20;41.20
81935;DHT22;71405;47.674;-2.050;2024-01-16T06:14:34;19.20;41.20
81935;DHT22;71405;47.674;-2.050;2024-01-16T06:17:00;19.20;41.30
81935;DHT22;71405;47.674;-2.050;2024-01-16T06:19:26;19.10;41.50
81935;DHT22;71405;47.674;-2.050;2024-01-16T06:21:51;19.10;41.30
81935;DHT22;71405;47.674;-2.050;2024-01-16T06:24:17;19.20;41.30
81935;DHT22;71405;47.674;-2.050;2024-01-16T06:26:43;19.20;41.10
81935;DHT22;71405;47.674;-2.050;2024-01-16T06:29:08;19.20;41.20
81935;DHT22;71405;47.674;-2.050;2024-01-16T06:31:34;19.20;41.20
81935;DHT22;71405;47.674;-2.050;2024-01-16T06:34:00;19.20;41.40
81935;DHT22;71405;47.674;-2.050;2024-01-16T06:36:26;19.20;41.20
81935;DHT22;71405;47.674;-2.050;2024-01-16T06:38:51;19.20;41.20
81935;DHT22;71405;47.674;-2.050;2024-01-16T06:41:17;19.20;41.20
81935;DHT22;71405;47.674;-2.050;2024-01-16T06:43:43;19.20;41.30
81935;DHT22;71405;47.674;-2.050;2024-01-16T06:46:09;19.20;41.20
81935;DHT22;71405;47.674;-2.050;2024-01-16T06:48:36;19.20;41.30
81935;DHT22;71405;47.674;-2.050;2024-01-16T06:51:02;19.20;41.50
81935;DHT22;71405;47.674;-2.050;2024-01-16T06:53:28;19.20;41.20
81935;DHT22;71405;47.674;-2.050;2024-01-16T06:55:54;19.20;41.20
81935;DHT22;71405;47.674;-2.050;2024-01-16T06:58:19;19.20;41.20
81935;DHT22;71405;47.674;-2.050;2024-01-16T07:00:47;19.20;41.20
81935;DHT22;71405;47.674;-2.050;2024-01-16T07:03:13;19.20;41.60
81935;DHT22;71405;47.674;-2.050;2024-01-16T07:05:39;19.10;41.10
81935;DHT22;71405;47.674;-2.050;2024-01-16T07:08:06;19.10;41.30
81935;DHT22;71405;47.674;-2.050;2024-01-16T07:10:32;19.10;41.10
81935;DHT22;71405;47.674;-2.050;2024-01-16T07:12:59;19.20;41.40
81935;DHT22;71405;47.674;-2.050;2024-01-16T07:15:25;19.10;41.10
81935;DHT22;71405;47.674;-2.050;2024-01-16T07:17:51;19.10;41.10
81935;DHT22;71405;47.674;-2.050;2024-01-16T07:20:16;19.10;41.20
81935;DHT22;71405;47.674;-2.050;2024-01-16T07:22:42;19.10;41.90
81935;DHT22;71405;47.674;-2.050;2024-01-16T07:25:08;19.20;42.00
81935;DHT22;71405;47.674;-2.050;2024-01-16T07:27:34;19.20;43.10
81935;DHT22;71405;47.674;-2.050;2024-01-16T07:30:00;19.10;43.20
81935;DHT22;71405;47.674;-2.050;2024-01-16T07:32:26;19.20;43.00
81935;DHT22;71405;47.674;-2.050;2024-01-16T07:34:52;19.20;43.10
81935;DHT22;71405;47.674;-2.050;2024-01-16T07:37:18;19.20;43.00
81935;DHT22;71405;47.674;-2.050;2024-01-16T07:39:44;19.10;43.00
81935;DHT22;71405;47.674;-2.050;2024-01-16T07:42:10;19.10;43.10
81935;DHT22;71405;47.674;-2.050;2024-01-16T07:44:36;19.10;42.80
81935;DHT22;71405;47.674;-2.050;2024-01-16T07:47:02;19.10;42.80
81935;DHT22;71405;47.674;-2.050;2024-01-16T07:49:28;19.10;42.90
81935;DHT22;71405;47.674;-2.050;2024-01-16T07:51:53;19.10;42.80
81935;DHT22;71405;47.674;-2.050;2024-01-16T07:54:19;19.10;42.70
81935;DHT22;71405;47.674;-2.050;2024-01-16T07:56:45;19.10;43.10
81935;DHT22;71405;47.674;-2.050;2024-01-16T07:59:10;19.10;42.60
81935;DHT22;71405;47.674;-2.050;2024-01-16T08:01:36;19.10;42.50
81935;DHT22;71405;47.674;-2.050;2024-01-16T08:04:03;19.10;42.50
81935;DHT22;71405;47.674;-2.050;2024-01-16T08:06:29;19.10;42.50
81935;DHT22;71405;47.674;-2.050;2024-01-16T08:08:55;19.10;42.40
81935;DHT22;71405;47.674;-2.050;2024-01-16T08:11:21;19.10;42.30
81935;DHT22;71405;47.674;-2.050;2024-01-16T08:13:47;19.10;42.40
81935;DHT22;71405;47.674;-2.050;2024-01-16T08:16:13;19.00;42.30
81935;DHT22;71405;47.674;-2.050;2024-01-16T08:18:39;19.00;42.30
81935;DHT22;71405;47.674;-2.050;2024-01-16T08:21:04;19.00;42.40
81935;DHT22;71405;47.674;-2.050;2024-01-16T08:23:31;19.00;42.30
81935;DHT22;71405;47.674;-2.050;2024-01-16T08:25:56;19.00;42.30
81935;DHT22;71405;47.674;-2.050;2024-01-16T08:28:22;19.00;42.10
81935;DHT22;71405;47.674;-2.050;2024-01-16T08:30:50;19.00;42.10
81935;DHT22;71405;47.674;-2.050;2024-01-16T08:33:16;19.00;42.20
81935;DHT22;71405;47.674;-2.050;2024-01-16T08:35:41;19.00;42.10
81935;DHT22;71405;47.674;-2.050;2024-01-16T08:38:07;19.00;42.10
81935;DHT22;71405;47.674;-2.050;2024-01-16T08:40:33;19.00;42.00
81935;DHT22;71405;47.674;-2.050;2024-01-16T08:42:58;19.00;42.10
81935;DHT22;71405;47.674;-2.050;2024-01-16T08:45:24;19.00;42.00
81935;DHT22;71405;47.674;-2.050;2024-01-16T08:47:51;19.00;42.10
81935;DHT22;71405;47.674;-2.050;2024-01-16T08:50:17;19.00;42.00
81935;DHT22;71405;47.674;-2.050;2024-01-16T08:52:43;19.00;42.00
81935;DHT22;71405;47.674;-2.050;2024-01-16T08:55:09;19.00;41.90
81935;DHT22;71405;47.674;-2.050;2024-01-16T08:57:36;19.00;41.90
81935;DHT22;71405;47.674;-2.050;2024-01-16T09:00:06;19.00;41.80
81935;DHT22;71405;47.674;-2.050;2024-01-16T09:02:32;19.00;41.90
81935;DHT22;71405;47.674;-2.050;2024-01-16T09:04:58;19.00;41.80
81935;DHT22;71405;47.674;-2.050;2024-01-16T09:07:24;19.00;41.70
81935;DHT22;71405;47.674;-2.050;2024-01-16T09:09:50;19.00;41.70
81935;DHT22;71405;47.674;-2.050;2024-01-16T09:12:17;19.00;41.80
81935;DHT22;71405;47.674;-2.050;2024-01-16T09:14:43;18.70;42.00
81935;DHT22;71405;47.674;-2.050;2024-01-16T09:17:09;18.80;42.50
81935;DHT22;71405;47.674;-2.050;2024-01-16T09:19:35;18.90;42.00
81935;DHT22;71405;47.674;-2.050;2024-01-16T09:22:00;18.90;42.00
81935;DHT22;71405;47.674;-2.050;2024-01-16T09:24:26;18.90;41.90
81935;DHT22;71405;47.674;-2.050;2024-01-16T09:26:51;19.00;41.80
81935;DHT22;71405;47.674;-2.050;2024-01-16T09:29:17;19.00;41.60
81935;DHT22;71405;47.674;-2.050;2024-01-16T09:31:43;19.10;41.90
81935;DHT22;71405;47.674;-2.050;2024-01-16T09:34:08;19.10;41.80
81935;DHT22;71405;47.674;-2.050;2024-01-16T09:36:34;19.10;41.80
81935;DHT22;71405;47.674;-2.050;2024-01-16T09:39:04;19.10;41.30
81935;DHT22;71405;47.674;-2.050;2024-01-16T09:41:37;19.10;41.20
81935;DHT22;71405;47.674;-2.050;2024-01-16T09:44:03;19.10;41.40
81935;DHT22;71405;47.674;-2.050;2024-01-16T09:46:31;19.10;41.30
81935;DHT22;71405;47.674;-2.050;2024-01-16T09:48:57;19.10;41.20
81935;DHT22;71405;47.674;-2.050;2024-01-16T09:51:24;19.10;41.10
81935;DHT22;71405;47.674;-2.050;2024-01-16T09:53:50;19.10;41.00
81935;DHT22;71405;47.674;-2.050;2024-01-16T09:56:21;19.10;41.20
81935;DHT22;71405;47.674;-2.050;2024-01-16T09:58:49;19.10;41.40
81935;DHT22;71405;47.674;-2.050;2024-01-16T10:01:16;19.10;41.10
81935;DHT22;71405;47.674;-2.050;2024-01-16T10:03:45;19.10;41.00
81935;DHT22;71405;47.674;-2.050;2024-01-16T10:06:11;19.10;40.90
81935;DHT22;71405;47.674;-2.050;2024-01-16T10:08:37;19.10;41.10
81935;DHT22;71405;47.674;-2.050;2024-01-16T10:11:03;19.20;41.90
81935;DHT22;71405;47.674;-2.050;2024-01-16T10:13:31;19.20;41.10
81935;DHT22;71405;47.674;-2.050;2024-01-16T10:15:57;19.20;41.00
81935;DHT22;71405;47.674;-2.050;2024-01-16T10:18:29;19.10;41.20
81935;DHT22;71405;47.674;-2.050;2024-01-16T10:21:00;19.20;41.00
81935;DHT22;71405;47.674;-2.050;2024-01-16T10:23:27;19.20;41.10
81935;DHT22;71405;47.674;-2.050;2024-01-16T10:26:07;19.20;41.20
81935;DHT22;71405;47.674;-2.050;2024-01-16T10:28:34;19.20;41.00
81935;DHT22;71405;47.674;-2.050;2024-01-16T10:31:04;19.20;41.00
81935;DHT22;71405;47.674;-2.050;2024-01-16T10:33:30;19.20;41.00
81935;DHT22;71405;47.674;-2.050;2024-01-16T10:38:42;19.20;41.00
81935;DHT22;71405;47.674;-2.050;2024-01-16T10:41:10;19.20;40.90
81935;DHT22;71405;47.674;-2.050;2024-01-16T10:43:37;19.20;41.80
81935;DHT22;71405;47.674;-2.050;2024-01-16T10:46:17;19.20;41.40
81935;DHT22;71405;47.674;-2.050;2024-01-16T10:48:44;19.20;41.30
81935;DHT22;71405;47.674;-2.050;2024-01-16T10:51:11;19.50;40.70
81935;DHT22;71405;47.674;-2.050;2024-01-16T10:53:42;19.50;40.60
81935;DHT22;71405;47.674;-2.050;2024-01-16T10:56:10;19.40;40.90
81935;DHT22;71405;47.674;-2.050;2024-01-16T10:58:40;19.40;40.50
81935;DHT22;71405;47.674;-2.050;2024-01-16T11:01:10;19.20;40.50
81935;DHT22;71405;47.674;-2.050;2024-01-16T11:03:50;19.20;40.40
81935;DHT22;71405;47.674;-2.050;2024-01-16T11:06:17;19.10;40.40
81935;DHT22;71405;47.674;-2.050;2024-01-16T11:08:46;19.10;40.70
81935;DHT22;71405;47.674;-2.050;2024-01-16T11:11:13;19.10;40.50
81935;DHT22;71405;47.674;-2.050;2024-01-16T11:13:39;19.20;40.70
81935;DHT22;71405;47.674;-2.050;2024-01-16T11:16:10;19.20;40.40
81935;DHT22;71405;47.674;-2.050;2024-01-16T11:18:37;19.20;40.70
81935;DHT22;71405;47.674;-2.050;2024-01-16T11:21:08;19.30;40.70
81935;DHT22;71405;47.674;-2.050;2024-01-16T11:23:36;19.20;40.90
81935;DHT22;71405;47.674;-2.050;2024-01-16T11:26:24;19.30;41.50
81935;DHT22;71405;47.674;-2.050;2024-01-16T11:28:52;19.30;41.80
81935;DHT22;71405;47.674;-2.050;2024-01-16T11:31:33;19.30;42.20
81935;DHT22;71405;47.674;-2.050;2024-01-16T11:34:00;19.40;42.40
81935;DHT22;71405;47.674;-2.050;2024-01-16T11:36:51;19.40;42.30
81935;DHT22;71405;47.674;-2.050;2024-01-16T11:39:23;19.40;42.10
81935;DHT22;71405;47.674;-2.050;2024-01-16T11:47:03;19.50;42.00
81935;DHT22;71405;47.674;-2.050;2024-01-16T11:49:29;19.50;42.40
81935;DHT22;71405;47.674;-2.050;2024-01-16T11:51:57;19.50;42.20
81935;DHT22;71405;47.674;-2.050;2024-01-16T11:54:23;19.50;41.80
81935;DHT22;71405;47.674;-2.050;2024-01-16T12:02:12;19.50;41.80
81935;DHT22;71405;47.674;-2.050;2024-01-16T12:04:39;19.50;41.90
81935;DHT22;71405;47.674;-2.050;2024-01-16T12:07:05;19.50;41.70
81935;DHT22;71405;47.674;-2.050;2024-01-16T12:09:30;19.50;42.10
81935;DHT22;71405;47.674;-2.050;2024-01-16T12:12:01;19.50;42.40
81935;DHT22;71405;47.674;-2.050;2024-01-16T12:14:27;19.50;42.40
81935;DHT22;71405;47.674;-2.050;2024-01-16T12:17:00;19.60;42.10
81935;DHT22;71405;47.674;-2.050;2024-01-16T12:19:33;19.60;42.80
81935;DHT22;71405;47.674;-2.050;2024-01-16T12:22:00;19.60;42.80
81935;DHT22;71405;47.674;-2.050;2024-01-16T12:24:26;19.50;43.40
81935;DHT22;71405;47.674;-2.050;2024-01-16T12:26:51;19.50;43.50
81935;DHT22;71405;47.674;-2.050;2024-01-16T12:29:18;19.60;43.40
81935;DHT22;71405;47.674;-2.050;2024-01-16T12:31:43;19.50;42.90
81935;DHT22;71405;47.674;-2.050;2024-01-16T12:34:10;19.60;42.90
81935;DHT22;71405;47.674;-2.050;2024-01-16T12:36:36;19.60;42.90
81935;DHT22;71405;47.674;-2.050;2024-01-16T12:39:03;19.60;43.00
81935;DHT22;71405;47.674;-2.050;2024-01-16T12:41:32;19.60;42.70
81935;DHT22;71405;47.674;-2.050;2024-01-16T12:44:00;19.60;43.90
81935;DHT22;71405;47.674;-2.050;2024-01-16T12:46:25;19.60;42.70
81935;DHT22;71405;47.674;-2.050;2024-01-16T12:48:51;19.60;43.10
81935;DHT22;71405;47.674;-2.050;2024-01-16T12:51:21;19.60;43.00
81935;DHT22;71405;47.674;-2.050;2024-01-16T12:53:49;19.60;43.20
81935;DHT22;71405;47.674;-2.050;2024-01-16T12:56:19;19.60;43.50
81935;DHT22;71405;47.674;-2.050;2024-01-16T12:58:46;19.40;40.20
81935;DHT22;71405;47.674;-2.050;2024-01-16T13:01:24;19.30;43.10
81935;DHT22;71405;47.674;-2.050;2024-01-16T13:03:51;19.40;43.10
81935;DHT22;71405;47.674;-2.050;2024-01-16T13:06:18;19.40;43.20
81935;DHT22;71405;47.674;-2.050;2024-01-16T13:08:50;19.50;43.50
81935;DHT22;71405;47.674;-2.050;2024-01-16T13:11:16;19.50;42.70
81935;DHT22;71405;47.674;-2.050;2024-01-16T13:13:46;19.50;42.80
81935;DHT22;71405;47.674;-2.050;2024-01-16T13:16:16;19.50;43.20
81935;DHT22;71405;47.674;-2.050;2024-01-16T13:18:41;19.50;43.10
81935;DHT22;71405;47.674;-2.050;2024-01-16T13:21:08;19.50;42.80
81935;DHT22;71405;47.674;-2.050;2024-01-16T13:23:35;19.50;42.30
81935;DHT22;71405;47.674;-2.050;2024-01-16T13:26:01;19.50;42.90
81935;DHT22;71405;47.674;-2.050;2024-01-16T13:28:29;19.50;42.50
81935;DHT22;71405;47.674;-2.050;2024-01-16T13:30:55;19.50;42.80
81935;DHT22;71405;47.674;-2.050;2024-01-16T13:33:23;19.50;42.60
81935;DHT22;71405;47.674;-2.050;2024-01-16T13:35:53;19.50;42.30
81935;DHT22;71405;47.674;-2.050;2024-01-16T13:38:20;19.50;42.70
81935;DHT22;71405;47.674;-2.050;2024-01-16T13:40:46;19.50;42.30
81935;DHT22;71405;47.674;-2.050;2024-01-16T13:43:12;19.50;42.30
81935;DHT22;71405;47.674;-2.050;2024-01-16T13:45:38;19.50;42.70
81935;DHT22;71405;47.674;-2.050;2024-01-16T13:48:05;19.50;42.10
81935;DHT22;71405;47.674;-2.050;2024-01-16T13:50:32;19.50;42.40
81935;DHT22;71405;47.674;-2.050;2024-01-16T13:53:02;19.50;42.00
81935;DHT22;71405;47.674;-2.050;2024-01-16T13:55:28;19.50;42.20
81935;DHT22;71405;47.674;-2.050;2024-01-16T13:57:54;19.50;42.40
81935;DHT22;71405;47.674;-2.050;2024-01-16T14:00:19;19.50;42.20
81935;DHT22;71405;47.674;-2.050;2024-01-16T14:02:46;19.40;42.00
81935;DHT22;71405;47.674;-2.050;2024-01-16T14:05:17;19.40;42.20
81935;DHT22;71405;47.674;-2.050;2024-01-16T14:07:47;19.40;42.30
81935;DHT22;71405;47.674;-2.050;2024-01-16T14:10:14;19.40;42.20
81935;DHT22;71405;47.674;-2.050;2024-01-16T14:12:41;19.50;42.10
81935;DHT22;71405;47.674;-2.050;2024-01-16T14:15:18;19.40;42.20
81935;DHT22;71405;47.674;-2.050;2024-01-16T14:17:49;19.40;42.10
81935;DHT22;71405;47.674;-2.050;2024-01-16T14:20:16;19.40;42.10
81935;DHT22;71405;47.674;-2.050;2024-01-16T14:22:43;19.40;42.10
81935;DHT22;71405;47.674;-2.050;2024-01-16T14:25:10;19.40;42.00
81935;DHT22;71405;47.674;-2.050;2024-01-16T14:27:40;19.40;41.90
81935;DHT22;71405;47.674;-2.050;2024-01-16T14:30:11;19.40;42.10
81935;DHT22;71405;47.674;-2.050;2024-01-16T14:32:42;19.40;42.20
81935;DHT22;71405;47.674;-2.050;2024-01-16T14:35:09;19.40;42.20
81935;DHT22;71405;47.674;-2.050;2024-01-16T14:37:35;19.40;42.50
81935;DHT22;71405;47.674;-2.050;2024-01-16T14:40:03;19.40;42.30
81935;DHT22;71405;47.674;-2.050;2024-01-16T14:42:32;19.40;42.50
81935;DHT22;71405;47.674;-2.050;2024-01-16T14:44:59;19.40;42.20
81935;DHT22;71405;47.674;-2.050;2024-01-16T14:47:25;19.40;42.40
81935;DHT22;71405;47.674;-2.050;2024-01-16T14:49:51;19.40;42.70
81935;DHT22;71405;47.674;-2.050;2024-01-16T14:52:20;19.40;42.70
81935;DHT22;71405;47.674;-2.050;2024-01-16T14:54:46;19.40;42.40
81935;DHT22;71405;47.674;-2.050;2024-01-16T14:57:11;19.40;42.80
81935;DHT22;71405;47.674;-2.050;2024-01-16T14:59:37;19.40;42.70
81935;DHT22;71405;47.674;-2.050;2024-01-16T15:02:03;19.40;42.50
81935;DHT22;71405;47.674;-2.050;2024-01-16T15:04:41;19.40;42.20
81935;DHT22;71405;47.674;-2.050;2024-01-16T15:07:06;19.40;42.20
81935;DHT22;71405;47.674;-2.050;2024-01-16T15:09:33;19.40;42.20
81935;DHT22;71405;47.674;-2.050;2024-01-16T15:12:01;19.40;42.90
81935;DHT22;71405;47.674;-2.050;2024-01-16T15:14:27;19.40;42.50
81935;DHT22;71405;47.674;-2.050;2024-01-16T15:16:52;19.40;42.90
81935;DHT22;71405;47.674;-2.050;2024-01-16T15:19:18;19.40;42.20
81935;DHT22;71405;47.674;-2.050;2024-01-16T15:21:43;19.40;42.10
81935;DHT22;71405;47.674;-2.050;2024-01-16T15:24:09;19.40;42.60
81935;DHT22;71405;47.674;-2.050;2024-01-16T15:26:38;19.40;42.70